sensor_id;sensor_type;location;lat;lon;timestamp;P1;durP1;ratioP1;P2;durP2;ratioP2
32365;SDS011;18837;46.832;16.838;2023-09-08T00:01:56;5.00;;;4.00;;
32365;SDS011;18837;46.832;16.838;2023-09-08T00:04:25;4.70;;;4.20;;
32365;SDS011;18837;46.832;16.838;2023-09-08T00:06:51;4.17;;;3.70;;
32365;SDS011;18837;46.832;16.838;2023-09-08T00:09:16;4.50;;;4.10;;
32365;SDS011;18837;46.832;16.838;2023-09-08T00:11:42;4.90;;;4.07;;
32365;SDS011;18837;46.832;16.838;2023-09-08T00:14:08;4.50;;;4.10;;
32365;SDS011;18837;46.832;16.838;2023-09-08T00:16:34;4.80;;;3.60;;
32365;SDS011;18837;46.832;16.838;2023-09-08T00:19:03;4.03;;;3.47;;
32365;SDS011;18837;46.832;16.838;2023-09-08T00:21:28;4.53;;;4.00;;
32365;SDS011;18837;46.832;16.838;2023-09-08T00:23:54;4.40;;;4.00;;
32365;SDS011;18837;46.832;16.838;2023-09-08T00:26:20;4.40;;;4.00;;
32365;SDS011;18837;46.832;16.838;2023-09-08T00:28:47;5.47;;;3.83;;
32365;SDS011;18837;46.832;16.838;2023-09-08T00:31:13;4.30;;;3.80;;
32365;SDS011;18837;46.832;16.838;2023-09-08T00:33:39;4.17;;;3.77;;
32365;SDS011;18837;46.832;16.838;2023-09-08T00:36:08;4.87;;;4.00;;
32365;SDS011;18837;46.832;16.838;2023-09-08T00:38:34;4.83;;;3.87;;
32365;SDS011;18837;46.832;16.838;2023-09-08T00:41:00;4.20;;;3.80;;
32365;SDS011;18837;46.832;16.838;2023-09-08T00:43:26;4.30;;;3.83;;
32365;SDS011;18837;46.832;16.838;2023-09-08T00:45:52;4.13;;;3.70;;
32365;SDS011;18837;46.832;16.838;2023-09-08T00:48:20;4.80;;;3.67;;
32365;SDS011;18837;46.832;16.838;2023-09-08T00:50:46;3.90;;;3.43;;
32365;SDS011;18837;46.832;16.838;2023-09-08T00:53:13;4.30;;;3.67;;
32365;SDS011;18837;46.832;16.838;2023-09-08T00:55:39;4.00;;;3.70;;
32365;SDS011;18837;46.832;16.838;2023-09-08T00:58:05;3.90;;;3.53;;
32365;SDS011;18837;46.832;16.838;2023-09-08T01:00:31;4.13;;;3.70;;
32365;SDS011;18837;46.832;16.838;2023-09-08T01:02:57;5.20;;;4.00;;
32365;SDS011;18837;46.832;16.838;2023-09-08T01:05:23;3.73;;;3.43;;
32365;SDS011;18837;46.832;16.838;2023-09-08T01:07:49;4.20;;;3.80;;
32365;SDS011;18837;46.832;16.838;2023-09-08T01:10:16;4.23;;;3.83;;
32365;SDS011;18837;46.832;16.838;2023-09-08T01:12:42;5.27;;;4.00;;
32365;SDS011;18837;46.832;16.838;2023-09-08T01:15:08;5.20;;;4.10;;
32365;SDS011;18837;46.832;16.838;2023-09-08T01:17:34;4.43;;;4.03;;
32365;SDS011;18837;46.832;16.838;2023-09-08T01:20:05;4.47;;;4.07;;
32365;SDS011;18837;46.832;16.838;2023-09-08T01:25:42;4.20;;;3.80;;
32365;SDS011;18837;46.832;16.838;2023-09-08T01:28:29;4.80;;;3.93;;
32365;SDS011;18837;46.832;16.838;2023-09-08T01:30:56;5.47;;;3.93;;
32365;SDS011;18837;46.832;16.838;2023-09-08T01:33:22;4.27;;;3.70;;
32365;SDS011;18837;46.832;16.838;2023-09-08T01:35:48;4.27;;;3.80;;
32365;SDS011;18837;46.832;16.838;2023-09-08T01:38:15;5.70;;;4.33;;
32365;SDS011;18837;46.832;16.838;2023-09-08T01:40:41;4.47;;;3.93;;
32365;SDS011;18837;46.832;16.838;2023-09-08T01:43:07;4.30;;;3.83;;
32365;SDS011;18837;46.832;16.838;2023-09-08T01:45:34;4.90;;;3.80;;
32365;SDS011;18837;46.832;16.838;2023-09-08T01:48:01;4.43;;;4.03;;
32365;SDS011;18837;46.832;16.838;2023-09-08T01:50:27;4.57;;;3.97;;
32365;SDS011;18837;46.832;16.838;2023-09-08T01:52:52;4.33;;;3.90;;
32365;SDS011;18837;46.832;16.838;2023-09-08T01:55:18;4.53;;;3.73;;
32365;SDS011;18837;46.832;16.838;2023-09-08T01:57:45;5.27;;;3.70;;
32365;SDS011;18837;46.832;16.838;2023-09-08T02:00:11;5.93;;;3.93;;
32365;SDS011;18837;46.832;16.838;2023-09-08T02:02:39;5.80;;;3.90;;
32365;SDS011;18837;46.832;16.838;2023-09-08T02:05:05;5.50;;;3.90;;
32365;SDS011;18837;46.832;16.838;2023-09-08T02:07:31;3.93;;;3.33;;
32365;SDS011;18837;46.832;16.838;2023-09-08T02:09:57;4.10;;;3.70;;
32365;SDS011;18837;46.832;16.838;2023-09-08T02:12:23;4.13;;;3.73;;
32365;SDS011;18837;46.832;16.838;2023-09-08T02:14:49;4.73;;;4.23;;
32365;SDS011;18837;46.832;16.838;2023-09-08T02:17:14;5.27;;;3.60;;
32365;SDS011;18837;46.832;16.838;2023-09-08T02:19:40;4.30;;;3.90;;
32365;SDS011;18837;46.832;16.838;2023-09-08T02:22:07;4.23;;;3.60;;
32365;SDS011;18837;46.832;16.838;2023-09-08T02:24:33;4.07;;;3.70;;
32365;SDS011;18837;46.832;16.838;2023-09-08T02:26:59;4.20;;;3.63;;
32365;SDS011;18837;46.832;16.838;2023-09-08T02:29:24;4.80;;;3.40;;
32365;SDS011;18837;46.832;16.838;2023-09-08T02:31:50;4.80;;;3.90;;
32365;SDS011;18837;46.832;16.838;2023-09-08T02:34:16;5.47;;;3.93;;
32365;SDS011;18837;46.832;16.838;2023-09-08T02:36:42;4.23;;;3.73;;
32365;SDS011;18837;46.832;16.838;2023-09-08T02:39:08;4.03;;;3.60;;
32365;SDS011;18837;46.832;16.838;2023-09-08T02:41:35;4.60;;;3.77;;
32365;SDS011;18837;46.832;16.838;2023-09-08T02:44:01;4.13;;;3.73;;
32365;SDS011;18837;46.832;16.838;2023-09-08T02:46:27;4.17;;;3.77;;
32365;SDS011;18837;46.832;16.838;2023-09-08T02:48:53;4.27;;;3.80;;
32365;SDS011;18837;46.832;16.838;2023-09-08T02:51:18;5.83;;;3.50;;
32365;SDS011;18837;46.832;16.838;2023-09-08T02:53:44;3.97;;;3.57;;
32365;SDS011;18837;46.832;16.838;2023-09-08T02:56:10;4.33;;;3.93;;
32365;SDS011;18837;46.832;16.838;2023-09-08T02:58:36;5.20;;;3.83;;
32365;SDS011;18837;46.832;16.838;2023-09-08T03:01:15;4.73;;;3.80;;
32365;SDS011;18837;46.832;16.838;2023-09-08T03:03:45;3.87;;;3.47;;
32365;SDS011;18837;46.832;16.838;2023-09-08T03:06:13;4.90;;;3.97;;
32365;SDS011;18837;46.832;16.838;2023-09-08T03:08:40;4.13;;;3.70;;
32365;SDS011;18837;46.832;16.838;2023-09-08T03:11:07;4.80;;;3.63;;
32365;SDS011;18837;46.832;16.838;2023-09-08T03:13:34;4.20;;;3.80;;
32365;SDS011;18837;46.832;16.838;2023-09-08T03:16:07;4.40;;;3.57;;
32365;SDS011;18837;46.832;16.838;2023-09-08T03:18:34;3.80;;;3.40;;
32365;SDS011;18837;46.832;16.838;2023-09-08T03:21:02;5.30;;;3.73;;
32365;SDS011;18837;46.832;16.838;2023-09-08T03:23:34;3.77;;;3.37;;
32365;SDS011;18837;46.832;16.838;2023-09-08T03:26:01;3.87;;;3.47;;
32365;SDS011;18837;46.832;16.838;2023-09-08T03:28:27;4.47;;;4.07;;
32365;SDS011;18837;46.832;16.838;2023-09-08T03:30:56;4.50;;;4.10;;
32365;SDS011;18837;46.832;16.838;2023-09-08T03:33:22;4.30;;;3.70;;
32365;SDS011;18837;46.832;16.838;2023-09-08T03:35:47;3.70;;;3.37;;
32365;SDS011;18837;46.832;16.838;2023-09-08T03:38:13;3.87;;;3.50;;
32365;SDS011;18837;46.832;16.838;2023-09-08T03:40:40;4.73;;;3.80;;
32365;SDS011;18837;46.832;16.838;2023-09-08T03:43:05;4.30;;;3.90;;
32365;SDS011;18837;46.832;16.838;2023-09-08T03:45:31;4.13;;;3.73;;
32365;SDS011;18837;46.832;16.838;2023-09-08T03:47:57;4.97;;;3.70;;
32365;SDS011;18837;46.832;16.838;2023-09-08T03:50:23;4.10;;;3.63;;
32365;SDS011;18837;46.832;16.838;2023-09-08T03:52:49;4.40;;;3.83;;
32365;SDS011;18837;46.832;16.838;2023-09-08T03:55:15;4.67;;;3.87;;
32365;SDS011;18837;46.832;16.838;2023-09-08T03:57:42;6.00;;;3.67;;
32365;SDS011;18837;46.832;16.838;2023-09-08T04:00:08;4.00;;;3.60;;
32365;SDS011;18837;46.832;16.838;2023-09-08T04:02:35;4.47;;;3.67;;
32365;SDS011;18837;46.832;16.838;2023-09-08T04:05:01;3.83;;;3.37;;
32365;SDS011;18837;46.832;16.838;2023-09-08T04:07:28;4.10;;;3.70;;
32365;SDS011;18837;46.832;16.838;2023-09-08T04:09:53;4.30;;;3.90;;
32365;SDS011;18837;46.832;16.838;2023-09-08T04:12:19;4.77;;;4.00;;
32365;SDS011;18837;46.832;16.838;2023-09-08T04:14:45;4.83;;;3.90;;
32365;SDS011;18837;46.832;16.838;2023-09-08T04:17:10;4.33;;;3.93;;
32365;SDS011;18837;46.832;16.838;2023-09-08T04:19:36;6.07;;;3.90;;
32365;SDS011;18837;46.832;16.838;2023-09-08T04:22:02;3.87;;;3.50;;
32365;SDS011;18837;46.832;16.838;2023-09-08T04:24:28;4.67;;;4.20;;
32365;SDS011;18837;46.832;16.838;2023-09-08T04:26:54;3.70;;;3.40;;
32365;SDS011;18837;46.832;16.838;2023-09-08T04:29:19;5.07;;;3.90;;
32365;SDS011;18837;46.832;16.838;2023-09-08T04:31:45;4.47;;;3.70;;
32365;SDS011;18837;46.832;16.838;2023-09-08T04:34:11;4.07;;;3.50;;
32365;SDS011;18837;46.832;16.838;2023-09-08T04:36:36;3.77;;;3.47;;
32365;SDS011;18837;46.832;16.838;2023-09-08T04:39:03;4.33;;;3.73;;
32365;SDS011;18837;46.832;16.838;2023-09-08T04:41:31;4.70;;;3.70;;
32365;SDS011;18837;46.832;16.838;2023-09-08T04:43:56;4.37;;;3.80;;
32365;SDS011;18837;46.832;16.838;2023-09-08T04:46:23;4.13;;;3.73;;
32365;SDS011;18837;46.832;16.838;2023-09-08T04:48:48;3.97;;;3.60;;
32365;SDS011;18837;46.832;16.838;2023-09-08T04:51:14;4.03;;;3.63;;
32365;SDS011;18837;46.832;16.838;2023-09-08T04:53:40;4.83;;;4.10;;
32365;SDS011;18837;46.832;16.838;2023-09-08T04:56:06;4.20;;;3.80;;
32365;SDS011;18837;46.832;16.838;2023-09-08T04:58:32;5.87;;;4.00;;
32365;SDS011;18837;46.832;16.838;2023-09-08T05:00:57;5.67;;;3.97;;
32365;SDS011;18837;46.832;16.838;2023-09-08T05:03:23;4.13;;;3.27;;
32365;SDS011;18837;46.832;16.838;2023-09-08T05:05:51;4.43;;;3.93;;
32365;SDS011;18837;46.832;16.838;2023-09-08T05:08:16;6.13;;;3.97;;
32365;SDS011;18837;46.832;16.838;2023-09-08T05:10:43;4.37;;;3.60;;
32365;SDS011;18837;46.832;16.838;2023-09-08T05:13:09;3.90;;;3.60;;
32365;SDS011;18837;46.832;16.838;2023-09-08T05:15:36;4.00;;;3.37;;
32365;SDS011;18837;46.832;16.838;2023-09-08T05:18:03;4.80;;;3.90;;
32365;SDS011;18837;46.832;16.838;2023-09-08T05:20:30;4.33;;;3.93;;
32365;SDS011;18837;46.832;16.838;2023-09-08T05:22:55;5.80;;;4.00;;
32365;SDS011;18837;46.832;16.838;2023-09-08T05:25:21;6.23;;;3.53;;
32365;SDS011;18837;46.832;16.838;2023-09-08T05:27:47;4.60;;;4.00;;
32365;SDS011;18837;46.832;16.838;2023-09-08T05:30:23;4.67;;;3.97;;
32365;SDS011;18837;46.832;16.838;2023-09-08T05:32:49;5.00;;;4.47;;
32365;SDS011;18837;46.832;16.838;2023-09-08T05:35:14;4.10;;;3.57;;
32365;SDS011;18837;46.832;16.838;2023-09-08T05:37:40;4.83;;;4.13;;
32365;SDS011;18837;46.832;16.838;2023-09-08T05:40:06;4.83;;;4.17;;
32365;SDS011;18837;46.832;16.838;2023-09-08T05:42:32;5.07;;;4.10;;
32365;SDS011;18837;46.832;16.838;2023-09-08T05:45:01;4.20;;;3.77;;
32365;SDS011;18837;46.832;16.838;2023-09-08T05:47:32;7.00;;;4.10;;
32365;SDS011;18837;46.832;16.838;2023-09-08T05:49:58;5.23;;;4.03;;
32365;SDS011;18837;46.832;16.838;2023-09-08T05:52:23;4.70;;;4.20;;
32365;SDS011;18837;46.832;16.838;2023-09-08T05:54:51;4.17;;;3.77;;
32365;SDS011;18837;46.832;16.838;2023-09-08T05:57:17;5.53;;;4.37;;
32365;SDS011;18837;46.832;16.838;2023-09-08T05:59:42;6.30;;;4.07;;
32365;SDS011;18837;46.832;16.838;2023-09-08T06:02:08;4.40;;;3.83;;
32365;SDS011;18837;46.832;16.838;2023-09-08T06:04:34;4.40;;;4.00;;
32365;SDS011;18837;46.832;16.838;2023-09-08T06:07:00;4.57;;;3.93;;
32365;SDS011;18837;46.832;16.838;2023-09-08T06:09:26;5.13;;;4.30;;
32365;SDS011;18837;46.832;16.838;2023-09-08T06:11:51;4.43;;;4.03;;
32365;SDS011;18837;46.832;16.838;2023-09-08T06:14:17;6.53;;;4.50;;
32365;SDS011;18837;46.832;16.838;2023-09-08T06:16:43;4.83;;;4.20;;
32365;SDS011;18837;46.832;16.838;2023-09-08T06:19:08;4.60;;;3.90;;
32365;SDS011;18837;46.832;16.838;2023-09-08T06:21:38;4.27;;;3.80;;
32365;SDS011;18837;46.832;16.838;2023-09-08T06:24:05;4.70;;;4.23;;
32365;SDS011;18837;46.832;16.838;2023-09-08T06:26:31;5.97;;;4.43;;
32365;SDS011;18837;46.832;16.838;2023-09-08T06:28:57;5.57;;;4.47;;
32365;SDS011;18837;46.832;16.838;2023-09-08T06:31:22;5.30;;;4.23;;
32365;SDS011;18837;46.832;16.838;2023-09-08T06:33:48;4.60;;;4.20;;
32365;SDS011;18837;46.832;16.838;2023-09-08T06:36:17;5.07;;;4.20;;
32365;SDS011;18837;46.832;16.838;2023-09-08T06:38:43;5.67;;;4.47;;
32365;SDS011;18837;46.832;16.838;2023-09-08T06:41:12;4.60;;;4.13;;
32365;SDS011;18837;46.832;16.838;2023-09-08T06:43:38;5.83;;;4.37;;
32365;SDS011;18837;46.832;16.838;2023-09-08T06:46:04;5.20;;;4.67;;
32365;SDS011;18837;46.832;16.838;2023-09-08T06:48:30;4.97;;;4.47;;
32365;SDS011;18837;46.832;16.838;2023-09-08T06:50:56;4.57;;;4.10;;
32365;SDS011;18837;46.832;16.838;2023-09-08T06:53:22;5.47;;;4.43;;
32365;SDS011;18837;46.832;16.838;2023-09-08T06:55:48;4.63;;;4.13;;
32365;SDS011;18837;46.832;16.838;2023-09-08T06:58:15;4.70;;;4.23;;
32365;SDS011;18837;46.832;16.838;2023-09-08T07:00:41;6.47;;;4.73;;
32365;SDS011;18837;46.832;16.838;2023-09-08T07:03:07;5.67;;;4.43;;
32365;SDS011;18837;46.832;16.838;2023-09-08T07:05:35;4.77;;;4.37;;
32365;SDS011;18837;46.832;16.838;2023-09-08T07:08:01;4.57;;;4.17;;
32365;SDS011;18837;46.832;16.838;2023-09-08T07:10:27;5.33;;;4.50;;
32365;SDS011;18837;46.832;16.838;2023-09-08T07:12:53;4.53;;;4.03;;
32365;SDS011;18837;46.832;16.838;2023-09-08T07:15:18;5.77;;;4.60;;
32365;SDS011;18837;46.832;16.838;2023-09-08T07:17:44;5.53;;;4.90;;
32365;SDS011;18837;46.832;16.838;2023-09-08T07:20:10;5.07;;;4.50;;
32365;SDS011;18837;46.832;16.838;2023-09-08T07:22:36;5.73;;;4.90;;
32365;SDS011;18837;46.832;16.838;2023-09-08T07:25:03;6.67;;;4.63;;
32365;SDS011;18837;46.832;16.838;2023-09-08T07:27:29;5.07;;;4.57;;
32365;SDS011;18837;46.832;16.838;2023-09-08T07:30:00;4.87;;;4.13;;
32365;SDS011;18837;46.832;16.838;2023-09-08T07:32:31;5.67;;;4.77;;
32365;SDS011;18837;46.832;16.838;2023-09-08T07:34:56;4.90;;;4.43;;
32365;SDS011;18837;46.832;16.838;2023-09-08T07:37:22;5.30;;;4.80;;
32365;SDS011;18837;46.832;16.838;2023-09-08T07:39:52;4.70;;;4.30;;
32365;SDS011;18837;46.832;16.838;2023-09-08T07:42:17;4.80;;;4.30;;
32365;SDS011;18837;46.832;16.838;2023-09-08T07:44:44;6.23;;;4.70;;
32365;SDS011;18837;46.832;16.838;2023-09-08T07:47:10;4.67;;;3.80;;
32365;SDS011;18837;46.832;16.838;2023-09-08T07:49:36;5.97;;;4.80;;
32365;SDS011;18837;46.832;16.838;2023-09-08T07:52:02;6.40;;;4.83;;
32365;SDS011;18837;46.832;16.838;2023-09-08T07:54:29;5.50;;;4.23;;
32365;SDS011;18837;46.832;16.838;2023-09-08T07:56:55;5.27;;;4.77;;
32365;SDS011;18837;46.832;16.838;2023-09-08T07:59:21;5.20;;;4.30;;
32365;SDS011;18837;46.832;16.838;2023-09-08T08:01:47;5.13;;;4.63;;
32365;SDS011;18837;46.832;16.838;2023-09-08T08:04:16;4.70;;;4.30;;
32365;SDS011;18837;46.832;16.838;2023-09-08T08:06:50;5.43;;;4.93;;
32365;SDS011;18837;46.832;16.838;2023-09-08T08:09:18;5.47;;;4.60;;
32365;SDS011;18837;46.832;16.838;2023-09-08T08:11:43;4.50;;;4.10;;
32365;SDS011;18837;46.832;16.838;2023-09-08T08:14:12;5.00;;;4.30;;
32365;SDS011;18837;46.832;16.838;2023-09-08T08:16:37;4.53;;;4.13;;
32365;SDS011;18837;46.832;16.838;2023-09-08T08:19:03;5.40;;;4.50;;
32365;SDS011;18837;46.832;16.838;2023-09-08T08:21:29;4.90;;;4.40;;
32365;SDS011;18837;46.832;16.838;2023-09-08T08:23:55;4.60;;;4.20;;
32365;SDS011;18837;46.832;16.838;2023-09-08T08:26:21;4.80;;;4.30;;
32365;SDS011;18837;46.832;16.838;2023-09-08T08:28:47;4.50;;;4.10;;
32365;SDS011;18837;46.832;16.838;2023-09-08T08:31:13;4.50;;;4.10;;
32365;SDS011;18837;46.832;16.838;2023-09-08T08:33:39;4.37;;;3.97;;
32365;SDS011;18837;46.832;16.838;2023-09-08T08:36:05;4.27;;;3.87;;
32365;SDS011;18837;46.832;16.838;2023-09-08T08:38:32;4.47;;;4.07;;
32365;SDS011;18837;46.832;16.838;2023-09-08T08:41:02;4.60;;;4.20;;
32365;SDS011;18837;46.832;16.838;2023-09-08T08:43:29;4.97;;;4.23;;
32365;SDS011;18837;46.832;16.838;2023-09-08T08:45:58;4.80;;;4.30;;
32365;SDS011;18837;46.832;16.838;2023-09-08T08:48:26;4.63;;;3.93;;
32365;SDS011;18837;46.832;16.838;2023-09-08T08:50:54;5.47;;;4.73;;
32365;SDS011;18837;46.832;16.838;2023-09-08T08:53:22;4.93;;;4.43;;
32365;SDS011;18837;46.832;16.838;2023-09-08T08:55:48;5.33;;;4.70;;
32365;SDS011;18837;46.832;16.838;2023-09-08T08:58:15;5.00;;;4.50;;
32365;SDS011;18837;46.832;16.838;2023-09-08T09:00:45;4.80;;;4.40;;
32365;SDS011;18837;46.832;16.838;2023-09-08T09:03:11;4.60;;;4.20;;
32365;SDS011;18837;46.832;16.838;2023-09-08T09:05:38;5.00;;;4.40;;
32365;SDS011;18837;46.832;16.838;2023-09-08T09:08:05;4.53;;;4.13;;
32365;SDS011;18837;46.832;16.838;2023-09-08T09:10:32;5.03;;;4.53;;
32365;SDS011;18837;46.832;16.838;2023-09-08T09:13:03;4.80;;;4.40;;
32365;SDS011;18837;46.832;16.838;2023-09-08T09:15:30;5.60;;;4.57;;
32365;SDS011;18837;46.832;16.838;2023-09-08T09:18:04;4.67;;;4.27;;
32365;SDS011;18837;46.832;16.838;2023-09-08T09:20:30;4.70;;;4.27;;
32365;SDS011;18837;46.832;16.838;2023-09-08T09:22:57;5.40;;;4.93;;
32365;SDS011;18837;46.832;16.838;2023-09-08T09:25:32;6.10;;;5.00;;
32365;SDS011;18837;46.832;16.838;2023-09-08T09:28:13;6.07;;;4.97;;
32365;SDS011;18837;46.832;16.838;2023-09-08T09:30:51;5.27;;;4.70;;
32365;SDS011;18837;46.832;16.838;2023-09-08T09:33:21;6.77;;;5.00;;
32365;SDS011;18837;46.832;16.838;2023-09-08T09:35:48;4.90;;;4.40;;
32365;SDS011;18837;46.832;16.838;2023-09-08T09:38:15;5.37;;;4.77;;
32365;SDS011;18837;46.832;16.838;2023-09-08T09:40:45;5.80;;;5.20;;
32365;SDS011;18837;46.832;16.838;2023-09-08T09:43:11;5.47;;;4.77;;
32365;SDS011;18837;46.832;16.838;2023-09-08T09:45:38;5.00;;;4.50;;
32365;SDS011;18837;46.832;16.838;2023-09-08T09:48:11;4.87;;;4.33;;
32365;SDS011;18837;46.832;16.838;2023-09-08T09:50:40;6.23;;;4.90;;
32365;SDS011;18837;46.832;16.838;2023-09-08T09:53:12;4.67;;;4.23;;
32365;SDS011;18837;46.832;16.838;2023-09-08T09:55:39;4.70;;;4.30;;
32365;SDS011;18837;46.832;16.838;2023-09-08T09:58:06;5.10;;;4.70;;
32365;SDS011;18837;46.832;16.838;2023-09-08T10:00:33;5.10;;;4.60;;
32365;SDS011;18837;46.832;16.838;2023-09-08T10:03:09;5.33;;;4.73;;
32365;SDS011;18837;46.832;16.838;2023-09-08T10:05:37;5.20;;;4.70;;
32365;SDS011;18837;46.832;16.838;2023-09-08T10:08:06;4.90;;;4.50;;
32365;SDS011;18837;46.832;16.838;2023-09-08T10:10:32;4.77;;;4.27;;
32365;SDS011;18837;46.832;16.838;2023-09-08T10:13:02;6.57;;;4.67;;
32365;SDS011;18837;46.832;16.838;2023-09-08T10:15:30;5.40;;;4.50;;
32365;SDS011;18837;46.832;16.838;2023-09-08T10:17:57;5.63;;;5.10;;
32365;SDS011;18837;46.832;16.838;2023-09-08T10:20:24;5.40;;;4.90;;
32365;SDS011;18837;46.832;16.838;2023-09-08T10:23:02;5.93;;;5.03;;
32365;SDS011;18837;46.832;16.838;2023-09-08T10:25:41;5.30;;;4.80;;
32365;SDS011;18837;46.832;16.838;2023-09-08T10:28:09;5.20;;;4.70;;
32365;SDS011;18837;46.832;16.838;2023-09-08T10:30:35;5.10;;;4.60;;
32365;SDS011;18837;46.832;16.838;2023-09-08T10:33:01;4.77;;;4.37;;
32365;SDS011;18837;46.832;16.838;2023-09-08T10:35:28;5.50;;;5.00;;
32365;SDS011;18837;46.832;16.838;2023-09-08T10:41:34;5.10;;;4.60;;
32365;SDS011;18837;46.832;16.838;2023-09-08T10:46:32;5.37;;;4.87;;
32365;SDS011;18837;46.832;16.838;2023-09-08T10:49:06;5.20;;;4.70;;
32365;SDS011;18837;46.832;16.838;2023-09-08T10:51:33;5.13;;;4.67;;
32365;SDS011;18837;46.832;16.838;2023-09-08T10:53:59;4.80;;;4.33;;
32365;SDS011;18837;46.832;16.838;2023-09-08T10:57:00;5.40;;;4.90;;
32365;SDS011;18837;46.832;16.838;2023-09-08T10:59:21;5.40;;;4.90;;
32365;SDS011;18837;46.832;16.838;2023-09-08T11:01:53;5.67;;;5.00;;
32365;SDS011;18837;46.832;16.838;2023-09-08T11:04:20;5.33;;;4.83;;
32365;SDS011;18837;46.832;16.838;2023-09-08T11:06:48;5.60;;;5.10;;
32365;SDS011;18837;46.832;16.838;2023-09-08T11:09:14;4.93;;;4.30;;
32365;SDS011;18837;46.832;16.838;2023-09-08T11:11:42;4.83;;;4.33;;
32365;SDS011;18837;46.832;16.838;2023-09-08T11:14:09;5.33;;;4.40;;
32365;SDS011;18837;46.832;16.838;2023-09-08T11:16:36;5.10;;;4.60;;
32365;SDS011;18837;46.832;16.838;2023-09-08T11:19:02;5.50;;;4.90;;
32365;SDS011;18837;46.832;16.838;2023-09-08T11:21:29;5.43;;;4.93;;
32365;SDS011;18837;46.832;16.838;2023-09-08T11:24:00;7.20;;;5.10;;
32365;SDS011;18837;46.832;16.838;2023-09-08T11:26:27;4.97;;;4.30;;
32365;SDS011;18837;46.832;16.838;2023-09-08T11:28:53;4.77;;;4.37;;
32365;SDS011;18837;46.832;16.838;2023-09-08T11:31:19;5.20;;;4.70;;
32365;SDS011;18837;46.832;16.838;2023-09-08T11:33:45;4.37;;;4.00;;
32365;SDS011;18837;46.832;16.838;2023-09-08T11:36:14;5.00;;;4.60;;
32365;SDS011;18837;46.832;16.838;2023-09-08T11:38:41;5.67;;;4.60;;
32365;SDS011;18837;46.832;16.838;2023-09-08T11:41:08;5.47;;;4.97;;
32365;SDS011;18837;46.832;16.838;2023-09-08T11:43:34;5.13;;;4.63;;
32365;SDS011;18837;46.832;16.838;2023-09-08T11:46:05;5.37;;;4.20;;
32365;SDS011;18837;46.832;16.838;2023-09-08T11:48:46;5.23;;;4.73;;
32365;SDS011;18837;46.832;16.838;2023-09-08T11:51:12;5.03;;;4.53;;
32365;SDS011;18837;46.832;16.838;2023-09-08T11:53:38;5.13;;;4.63;;
32365;SDS011;18837;46.832;16.838;2023-09-08T11:56:04;5.23;;;4.73;;
32365;SDS011;18837;46.832;16.838;2023-09-08T11:58:30;4.83;;;4.33;;
32365;SDS011;18837;46.832;16.838;2023-09-08T12:00:56;4.77;;;4.37;;
32365;SDS011;18837;46.832;16.838;2023-09-08T12:03:23;5.90;;;4.67;;
32365;SDS011;18837;46.832;16.838;2023-09-08T12:05:58;4.77;;;4.37;;
32365;SDS011;18837;46.832;16.838;2023-09-08T12:08:25;4.77;;;4.37;;
32365;SDS011;18837;46.832;16.838;2023-09-08T12:10:54;4.90;;;4.50;;
32365;SDS011;18837;46.832;16.838;2023-09-08T12:13:21;5.30;;;4.80;;
32365;SDS011;18837;46.832;16.838;2023-09-08T12:15:47;4.73;;;4.33;;
32365;SDS011;18837;46.832;16.838;2023-09-08T12:18:13;4.60;;;4.13;;
32365;SDS011;18837;46.832;16.838;2023-09-08T12:21:02;5.33;;;4.90;;
32365;SDS011;18837;46.832;16.838;2023-09-08T12:26:49;5.03;;;4.60;;
32365;SDS011;18837;46.832;16.838;2023-09-08T12:29:15;5.40;;;4.90;;
32365;SDS011;18837;46.832;16.838;2023-09-08T12:31:41;4.70;;;4.30;;
32365;SDS011;18837;46.832;16.838;2023-09-08T12:34:07;4.60;;;4.20;;
32365;SDS011;18837;46.832;16.838;2023-09-08T12:36:34;4.57;;;4.17;;
32365;SDS011;18837;46.832;16.838;2023-09-08T12:39:03;4.43;;;4.03;;
32365;SDS011;18837;46.832;16.838;2023-09-08T12:41:31;4.53;;;4.13;;
32365;SDS011;18837;46.832;16.838;2023-09-08T12:43:56;4.77;;;4.30;;
32365;SDS011;18837;46.832;16.838;2023-09-08T12:46:22;4.80;;;4.40;;
32365;SDS011;18837;46.832;16.838;2023-09-08T12:48:49;4.67;;;4.27;;
32365;SDS011;18837;46.832;16.838;2023-09-08T12:51:14;4.17;;;3.83;;
32365;SDS011;18837;46.832;16.838;2023-09-08T12:53:40;4.83;;;4.43;;
32365;SDS011;18837;46.832;16.838;2023-09-08T12:56:21;4.93;;;4.40;;
32365;SDS011;18837;46.832;16.838;2023-09-08T12:58:52;4.83;;;4.43;;
32365;SDS011;18837;46.832;16.838;2023-09-08T13:01:18;4.47;;;4.07;;
32365;SDS011;18837;46.832;16.838;2023-09-08T13:03:44;4.70;;;4.30;;
32365;SDS011;18837;46.832;16.838;2023-09-08T13:06:10;4.87;;;4.47;;
32365;SDS011;18837;46.832;16.838;2023-09-08T13:08:36;4.73;;;4.33;;
32365;SDS011;18837;46.832;16.838;2023-09-08T13:11:01;4.93;;;4.43;;
32365;SDS011;18837;46.832;16.838;2023-09-08T13:13:28;4.23;;;3.83;;
32365;SDS011;18837;46.832;16.838;2023-09-08T13:16:00;4.30;;;4.00;;
32365;SDS011;18837;46.832;16.838;2023-09-08T13:18:26;4.27;;;3.97;;
32365;SDS011;18837;46.832;16.838;2023-09-08T13:20:52;4.60;;;4.20;;
32365;SDS011;18837;46.832;16.838;2023-09-08T13:23:17;4.10;;;3.80;;
32365;SDS011;18837;46.832;16.838;2023-09-08T13:25:43;4.53;;;4.13;;
32365;SDS011;18837;46.832;16.838;2023-09-08T13:28:09;4.60;;;4.20;;
32365;SDS011;18837;46.832;16.838;2023-09-08T13:30:38;6.00;;;4.37;;
32365;SDS011;18837;46.832;16.838;2023-09-08T13:33:06;4.43;;;4.07;;
32365;SDS011;18837;46.832;16.838;2023-09-08T13:35:32;4.70;;;4.30;;
32365;SDS011;18837;46.832;16.838;2023-09-08T13:37:58;4.37;;;4.00;;
32365;SDS011;18837;46.832;16.838;2023-09-08T13:40:25;4.53;;;4.10;;
32365;SDS011;18837;46.832;16.838;2023-09-08T13:42:51;5.63;;;4.20;;
32365;SDS011;18837;46.832;16.838;2023-09-08T13:45:17;4.27;;;3.97;;
32365;SDS011;18837;46.832;16.838;2023-09-08T13:47:43;5.70;;;4.70;;
32365;SDS011;18837;46.832;16.838;2023-09-08T13:50:08;5.03;;;4.30;;
32365;SDS011;18837;46.832;16.838;2023-09-08T13:52:34;4.70;;;4.30;;
32365;SDS011;18837;46.832;16.838;2023-09-08T13:55:00;4.97;;;4.10;;
32365;SDS011;18837;46.832;16.838;2023-09-08T13:57:26;4.83;;;4.20;;
32365;SDS011;18837;46.832;16.838;2023-09-08T13:59:52;5.57;;;5.07;;
32365;SDS011;18837;46.832;16.838;2023-09-08T14:02:19;4.70;;;4.30;;
32365;SDS011;18837;46.832;16.838;2023-09-08T14:04:54;5.03;;;4.57;;
32365;SDS011;18837;46.832;16.838;2023-09-08T14:10:13;4.77;;;4.37;;
32365;SDS011;18837;46.832;16.838;2023-09-08T14:12:39;4.67;;;4.17;;
32365;SDS011;18837;46.832;16.838;2023-09-08T14:15:05;4.73;;;4.33;;
32365;SDS011;18837;46.832;16.838;2023-09-08T14:17:31;4.97;;;4.57;;
32365;SDS011;18837;46.832;16.838;2023-09-08T14:19:56;4.20;;;3.90;;
32365;SDS011;18837;46.832;16.838;2023-09-08T14:22:22;4.97;;;4.50;;
32365;SDS011;18837;46.832;16.838;2023-09-08T14:24:54;4.60;;;4.20;;
32365;SDS011;18837;46.832;16.838;2023-09-08T14:27:20;4.97;;;4.47;;
32365;SDS011;18837;46.832;16.838;2023-09-08T14:29:46;4.50;;;4.20;;
32365;SDS011;18837;46.832;16.838;2023-09-08T14:32:11;4.40;;;4.10;;
32365;SDS011;18837;46.832;16.838;2023-09-08T14:34:37;4.70;;;4.30;;
32365;SDS011;18837;46.832;16.838;2023-09-08T14:37:03;4.00;;;3.70;;
32365;SDS011;18837;46.832;16.838;2023-09-08T14:39:28;4.93;;;4.50;;
32365;SDS011;18837;46.832;16.838;2023-09-08T14:42:00;4.60;;;4.20;;
32365;SDS011;18837;46.832;16.838;2023-09-08T14:44:26;4.60;;;4.20;;
32365;SDS011;18837;46.832;16.838;2023-09-08T14:46:52;4.70;;;4.30;;
32365;SDS011;18837;46.832;16.838;2023-09-08T14:49:18;4.53;;;4.13;;